sensor_id;sensor_type;location;lat;lon;timestamp;temperature;humidity
15111;DHT22;7656;51.954;7.998;2024-02-23T00:02:11;8.30;99.90
15111;DHT22;7656;51.954;7.998;2024-02-23T00:06:32;8.10;99.90
15111;DHT22;7656;51.954;7.998;2024-02-23T00:10:53;8.00;99.90
15111;DHT22;7656;51.954;7.998;2024-02-23T00:15:14;7.80;99.90
15111;DHT22;7656;51.954;7.998;2024-02-23T00:19:35;7.60;99.90
15111;DHT22;7656;51.954;7.998;2024-02-23T00:23:56;7.30;99.90
15111;DHT22;7656;51.954;7.998;2024-02-23T00:28:17;7.10;99.90
15111;DHT22;7656;51.954;7.998;2024-02-23T00:32:38;6.80;99.90
15111;DHT22;7656;51.954;7.998;2024-02-23T00:36:59;6.50;99.90
15111;DHT22;7656;51.954;7.998;2024-02-23T00:41:20;6.40;99.90
15111;DHT22;7656;51.954;7.998;2024-02-23T00:45:42;6.40;99.90
15111;DHT22;7656;51.954;7.998;2024-02-23T00:50:03;6.30;99.90
15111;DHT22;7656;51.954;7.998;2024-02-23T00:54:24;6.10;99.90
15111;DHT22;7656;51.954;7.998;2024-02-23T00:58:45;6.00;99.90
15111;DHT22;7656;51.954;7.998;2024-02-23T01:03:06;5.90;99.90
15111;DHT22;7656;51.954;7.998;2024-02-23T01:07:27;5.80;99.90
15111;DHT22;7656;51.954;7.998;2024-02-23T01:11:49;5.80;99.90
15111;DHT22;7656;51.954;7.998;2024-02-23T01:16:10;5.80;99.90
15111;DHT22;7656;51.954;7.998;2024-02-23T01:20:31;5.80;99.90
15111;DHT22;7656;51.954;7.998;2024-02-23T01:24:52;5.80;99.90
15111;DHT22;7656;51.954;7.998;2024-02-23T01:29:14;5.70;99.90
15111;DHT22;7656;51.954;7.998;2024-02-23T01:33:38;5.80;99.90
15111;DHT22;7656;51.954;7.998;2024-02-23T01:37:59;5.80;99.90
15111;DHT22;7656;51.954;7.998;2024-02-23T01:42:21;5.60;99.90
15111;DHT22;7656;51.954;7.998;2024-02-23T01:46:43;5.60;99.90
15111;DHT22;7656;51.954;7.998;2024-02-23T01:51:04;5.70;99.90
15111;DHT22;7656;51.954;7.998;2024-02-23T01:55:25;5.70;99.90
15111;DHT22;7656;51.954;7.998;2024-02-23T01:59:47;5.70;99.90
15111;DHT22;7656;51.954;7.998;2024-02-23T02:04:09;5.60;99.90
15111;DHT22;7656;51.954;7.998;2024-02-23T02:08:30;5.50;99.90
15111;DHT22;7656;51.954;7.998;2024-02-23T02:12:51;5.50;99.90
15111;DHT22;7656;51.954;7.998;2024-02-23T02:17:12;5.60;99.90
15111;DHT22;7656;51.954;7.998;2024-02-23T02:21:33;5.60;99.90
15111;DHT22;7656;51.954;7.998;2024-02-23T02:25:56;5.50;99.90
15111;DHT22;7656;51.954;7.998;2024-02-23T02:30:17;5.50;99.90
15111;DHT22;7656;51.954;7.998;2024-02-23T02:34:38;5.60;99.90
15111;DHT22;7656;51.954;7.998;2024-02-23T02:38:59;5.60;99.90
15111;DHT22;7656;51.954;7.998;2024-02-23T02:43:20;5.70;99.90
15111;DHT22;7656;51.954;7.998;2024-02-23T02:47:41;5.70;99.90
15111;DHT22;7656;51.954;7.998;2024-02-23T02:52:03;5.80;99.90
15111;DHT22;7656;51.954;7.998;2024-02-23T02:56:24;5.80;99.90
15111;DHT22;7656;51.954;7.998;2024-02-23T03:00:45;5.90;99.90
15111;DHT22;7656;51.954;7.998;2024-02-23T03:05:06;5.90;99.90
15111;DHT22;7656;51.954;7.998;2024-02-23T03:09:28;6.00;99.90
15111;DHT22;7656;51.954;7.998;2024-02-23T03:13:49;6.10;99.90
15111;DHT22;7656;51.954;7.998;2024-02-23T03:18:10;6.20;99.90
15111;DHT22;7656;51.954;7.998;2024-02-23T03:22:31;6.30;99.90
15111;DHT22;7656;51.954;7.998;2024-02-23T03:26:52;6.30;99.90
15111;DHT22;7656;51.954;7.998;2024-02-23T03:31:13;6.30;99.90
15111;DHT22;7656;51.954;7.998;2024-02-23T03:35:34;6.10;99.90
15111;DHT22;7656;51.954;7.998;2024-02-23T03:39:55;6.20;99.90
15111;DHT22;7656;51.954;7.998;2024-02-23T03:44:16;6.30;99.90
15111;DHT22;7656;51.954;7.998;2024-02-23T03:48:37;6.30;99.90
15111;DHT22;7656;51.954;7.998;2024-02-23T03:52:59;6.20;99.90
15111;DHT22;7656;51.954;7.998;2024-02-23T03:57:20;6.20;99.90
15111;DHT22;7656;51.954;7.998;2024-02-23T04:01:41;6.30;99.90
15111;DHT22;7656;51.954;7.998;2024-02-23T04:06:03;6.10;99.90
15111;DHT22;7656;51.954;7.998;2024-02-23T04:10:24;6.00;99.90
15111;DHT22;7656;51.954;7.998;2024-02-23T04:14:45;5.90;99.90
15111;DHT22;7656;51.954;7.998;2024-02-23T04:19:06;6.00;99.90
15111;DHT22;7656;51.954;7.998;2024-02-23T04:23:27;5.80;99.90
15111;DHT22;7656;51.954;7.998;2024-02-23T04:27:48;5.80;99.90
15111;DHT22;7656;51.954;7.998;2024-02-23T04:32:09;5.80;99.90
15111;DHT22;7656;51.954;7.998;2024-02-23T04:36:30;5.90;99.90
15111;DHT22;7656;51.954;7.998;2024-02-23T04:40:52;5.90;99.90
15111;DHT22;7656;51.954;7.998;2024-02-23T04:45:13;5.90;99.90
15111;DHT22;7656;51.954;7.998;2024-02-23T04:49:34;5.90;99.90
15111;DHT22;7656;51.954;7.998;2024-02-23T04:53:55;6.00;99.90
15111;DHT22;7656;51.954;7.998;2024-02-23T04:58:16;6.00;99.90
15111;DHT22;7656;51.954;7.998;2024-02-23T05:02:37;6.10;99.90
15111;DHT22;7656;51.954;7.998;2024-02-23T05:06:59;6.30;99.90
15111;DHT22;7656;51.954;7.998;2024-02-23T05:11:20;6.30;99.90
15111;DHT22;7656;51.954;7.998;2024-02-23T05:15:41;6.20;99.90
15111;DHT22;7656;51.954;7.998;2024-02-23T05:20:02;6.20;99.90
15111;DHT22;7656;51.954;7.998;2024-02-23T05:24:28;6.20;99.90
15111;DHT22;7656;51.954;7.998;2024-02-23T05:28:49;6.20;99.90
15111;DHT22;7656;51.954;7.998;2024-02-23T05:33:10;6.20;99.90
15111;DHT22;7656;51.954;7.998;2024-02-23T05:37:32;6.30;99.90
15111;DHT22;7656;51.954;7.998;2024-02-23T05:41:53;6.20;99.90
15111;DHT22;7656;51.954;7.998;2024-02-23T05:46:14;6.20;99.90
15111;DHT22;7656;51.954;7.998;2024-02-23T05:50:35;6.20;99.90
15111;DHT22;7656;51.954;7.998;2024-02-23T05:54:56;6.30;99.90
15111;DHT22;7656;51.954;7.998;2024-02-23T05:59:17;6.40;99.90
15111;DHT22;7656;51.954;7.998;2024-02-23T06:03:38;6.30;99.90
15111;DHT22;7656;51.954;7.998;2024-02-23T06:07:59;6.30;99.90
15111;DHT22;7656;51.954;7.998;2024-02-23T06:12:22;6.40;99.90
15111;DHT22;7656;51.954;7.998;2024-02-23T06:16:44;6.20;99.90
15111;DHT22;7656;51.954;7.998;2024-02-23T06:21:15;6.20;99.90
15111;DHT22;7656;51.954;7.998;2024-02-23T06:25:38;6.20;99.90
15111;DHT22;7656;51.954;7.998;2024-02-23T06:29:59;6.10;99.90
15111;DHT22;7656;51.954;7.998;2024-02-23T06:34:20;6.00;99.90
15111;DHT22;7656;51.954;7.998;2024-02-23T06:38:41;6.00;99.90
15111;DHT22;7656;51.954;7.998;2024-02-23T06:43:02;6.00;99.90
15111;DHT22;7656;51.954;7.998;2024-02-23T06:47:23;6.00;99.90
15111;DHT22;7656;51.954;7.998;2024-02-23T06:51:45;6.00;99.90
15111;DHT22;7656;51.954;7.998;2024-02-23T06:56:06;6.20;99.90
15111;DHT22;7656;51.954;7.998;2024-02-23T07:00:27;6.10;99.90
15111;DHT22;7656;51.954;7.998;2024-02-23T07:04:49;6.50;99.90
15111;DHT22;7656;51.954;7.998;2024-02-23T07:09:10;6.70;99.90
15111;DHT22;7656;51.954;7.998;2024-02-23T07:13:32;7.00;99.90
15111;DHT22;7656;51.954;7.998;2024-02-23T07:17:53;7.40;99.90
15111;DHT22;7656;51.954;7.998;2024-02-23T07:22:14;7.60;99.90
15111;DHT22;7656;51.954;7.998;2024-02-23T07:26:37;8.20;99.90
15111;DHT22;7656;51.954;7.998;2024-02-23T07:30:58;8.90;99.90
15111;DHT22;7656;51.954;7.998;2024-02-23T07:35:19;9.20;99.90
15111;DHT22;7656;51.954;7.998;2024-02-23T07:39:40;9.90;99.90
15111;DHT22;7656;51.954;7.998;2024-02-23T07:48:23;11.80;99.90
15111;DHT22;7656;51.954;7.998;2024-02-23T07:52:44;10.80;99.90
15111;DHT22;7656;51.954;7.998;2024-02-23T07:57:05;10.10;99.90
15111;DHT22;7656;51.954;7.998;2024-02-23T08:32:02;14.90;99.90
15111;DHT22;7656;51.954;7.998;2024-02-23T08:40:45;15.60;99.90
15111;DHT22;7656;51.954;7.998;2024-02-23T08:45:06;15.10;99.90
15111;DHT22;7656;51.954;7.998;2024-02-23T08:49:28;13.70;99.90
15111;DHT22;7656;51.954;7.998;2024-02-23T08:53:49;11.70;99.90
15111;DHT22;7656;51.954;7.998;2024-02-23T08:58:10;10.00;99.90
15111;DHT22;7656;51.954;7.998;2024-02-23T09:02:32;9.00;99.90
15111;DHT22;7656;51.954;7.998;2024-02-23T09:06:56;8.80;99.90
15111;DHT22;7656;51.954;7.998;2024-02-23T09:11:17;8.40;99.90
15111;DHT22;7656;51.954;7.998;2024-02-23T09:15:38;8.30;99.90
15111;DHT22;7656;51.954;7.998;2024-02-23T09:19:59;7.80;99.90
15111;DHT22;7656;51.954;7.998;2024-02-23T09:24:20;7.90;99.90
15111;DHT22;7656;51.954;7.998;2024-02-23T09:28:41;7.80;99.90
15111;DHT22;7656;51.954;7.998;2024-02-23T09:33:02;7.60;99.90
15111;DHT22;7656;51.954;7.998;2024-02-23T09:37:24;7.50;99.90
15111;DHT22;7656;51.954;7.998;2024-02-23T09:41:45;7.30;99.90
15111;DHT22;7656;51.954;7.998;2024-02-23T09:46:06;7.40;99.90
15111;DHT22;7656;51.954;7.998;2024-02-23T09:50:28;7.60;99.90
15111;DHT22;7656;51.954;7.998;2024-02-23T09:54:50;7.50;99.90
15111;DHT22;7656;51.954;7.998;2024-02-23T09:59:11;7.50;99.90
15111;DHT22;7656;51.954;7.998;2024-02-23T10:03:33;7.50;99.90
15111;DHT22;7656;51.954;7.998;2024-02-23T10:07:56;7.50;99.90
15111;DHT22;7656;51.954;7.998;2024-02-23T10:12:18;7.50;99.90
15111;DHT22;7656;51.954;7.998;2024-02-23T10:16:39;7.60;99.90
15111;DHT22;7656;51.954;7.998;2024-02-23T10:21:00;7.70;99.90
15111;DHT22;7656;51.954;7.998;2024-02-23T10:25:21;7.70;99.90
15111;DHT22;7656;51.954;7.998;2024-02-23T10:29:43;7.80;99.90
15111;DHT22;7656;51.954;7.998;2024-02-23T10:34:08;7.80;99.90
15111;DHT22;7656;51.954;7.998;2024-02-23T10:38:33;8.10;99.90
15111;DHT22;7656;51.954;7.998;2024-02-23T10:43:01;8.30;99.90
15111;DHT22;7656;51.954;7.998;2024-02-23T10:47:24;8.40;99.90
15111;DHT22;7656;51.954;7.998;2024-02-23T10:51:46;8.30;99.90
15111;DHT22;7656;51.954;7.998;2024-02-23T10:56:10;8.70;99.90
15111;DHT22;7656;51.954;7.998;2024-02-23T11:00:31;9.10;99.90
15111;DHT22;7656;51.954;7.998;2024-02-23T11:04:54;8.80;99.90
15111;DHT22;7656;51.954;7.998;2024-02-23T11:09:16;8.90;99.90
15111;DHT22;7656;51.954;7.998;2024-02-23T11:13:43;8.90;99.90
15111;DHT22;7656;51.954;7.998;2024-02-23T11:18:30;8.70;99.90
15111;DHT22;7656;51.954;7.998;2024-02-23T11:22:54;8.80;99.90
15111;DHT22;7656;51.954;7.998;2024-02-23T11:27:16;9.20;99.90
15111;DHT22;7656;51.954;7.998;2024-02-23T11:31:45;9.10;99.90
15111;DHT22;7656;51.954;7.998;2024-02-23T11:36:08;9.10;99.90
15111;DHT22;7656;51.954;7.998;2024-02-23T11:40:30;9.10;99.90
15111;DHT22;7656;51.954;7.998;2024-02-23T11:44:52;9.30;99.90
15111;DHT22;7656;51.954;7.998;2024-02-23T11:49:15;9.10;99.90
15111;DHT22;7656;51.954;7.998;2024-02-23T11:53:39;9.10;99.90
15111;DHT22;7656;51.954;7.998;2024-02-23T11:58:00;9.00;99.90
15111;DHT22;7656;51.954;7.998;2024-02-23T12:02:23;9.30;99.90
15111;DHT22;7656;51.954;7.998;2024-02-23T12:06:45;9.10;99.90
15111;DHT22;7656;51.954;7.998;2024-02-23T12:11:07;9.70;99.90
15111;DHT22;7656;51.954;7.998;2024-02-23T12:15:29;10.70;99.90
15111;DHT22;7656;51.954;7.998;2024-02-23T12:19:58;11.10;99.90
15111;DHT22;7656;51.954;7.998;2024-02-23T12:24:22;11.30;99.90
15111;DHT22;7656;51.954;7.998;2024-02-23T12:28:48;11.30;99.90
15111;DHT22;7656;51.954;7.998;2024-02-23T12:33:09;10.90;99.90
15111;DHT22;7656;51.954;7.998;2024-02-23T12:37:35;10.00;99.90
15111;DHT22;7656;51.954;7.998;2024-02-23T12:41:56;9.70;99.90
15111;DHT22;7656;51.954;7.998;2024-02-23T12:46:18;9.50;99.90
15111;DHT22;7656;51.954;7.998;2024-02-23T12:50:39;9.50;99.90
15111;DHT22;7656;51.954;7.998;2024-02-23T12:55:00;9.40;99.90
15111;DHT22;7656;51.954;7.998;2024-02-23T12:59:21;9.40;99.90
15111;DHT22;7656;51.954;7.998;2024-02-23T13:03:42;9.00;99.90
15111;DHT22;7656;51.954;7.998;2024-02-23T13:08:03;9.00;99.90
15111;DHT22;7656;51.954;7.998;2024-02-23T13:12:25;9.00;99.90
15111;DHT22;7656;51.954;7.998;2024-02-23T13:16:46;8.80;99.90
15111;DHT22;7656;51.954;7.998;2024-02-23T13:21:07;8.70;99.90
15111;DHT22;7656;51.954;7.998;2024-02-23T13:25:28;9.00;99.90
15111;DHT22;7656;51.954;7.998;2024-02-23T13:29:49;8.70;99.90
15111;DHT22;7656;51.954;7.998;2024-02-23T13:34:10;9.10;99.90
15111;DHT22;7656;51.954;7.998;2024-02-23T13:38:32;8.90;99.90
15111;DHT22;7656;51.954;7.998;2024-02-23T13:42:58;9.00;99.90
15111;DHT22;7656;51.954;7.998;2024-02-23T13:47:20;9.10;99.90
15111;DHT22;7656;51.954;7.998;2024-02-23T13:51:41;8.80;99.90
15111;DHT22;7656;51.954;7.998;2024-02-23T13:56:02;8.90;99.90
15111;DHT22;7656;51.954;7.998;2024-02-23T14:00:24;9.00;99.90
15111;DHT22;7656;51.954;7.998;2024-02-23T14:04:45;9.00;99.90
15111;DHT22;7656;51.954;7.998;2024-02-23T14:09:06;9.10;99.90
15111;DHT22;7656;51.954;7.998;2024-02-23T14:13:27;9.40;99.90
15111;DHT22;7656;51.954;7.998;2024-02-23T14:17:48;9.70;99.90
15111;DHT22;7656;51.954;7.998;2024-02-23T14:22:12;9.70;99.90
15111;DHT22;7656;51.954;7.998;2024-02-23T14:26:33;10.00;99.90
15111;DHT22;7656;51.954;7.998;2024-02-23T14:30:55;9.80;99.90
15111;DHT22;7656;51.954;7.998;2024-02-23T14:35:16;9.70;99.90
15111;DHT22;7656;51.954;7.998;2024-02-23T14:39:37;9.50;99.90
15111;DHT22;7656;51.954;7.998;2024-02-23T14:43:58;9.40;99.90
15111;DHT22;7656;51.954;7.998;2024-02-23T14:48:19;9.20;99.90
15111;DHT22;7656;51.954;7.998;2024-02-23T14:52:40;9.30;99.90
15111;DHT22;7656;51.954;7.998;2024-02-23T14:57:01;8.80;99.90
15111;DHT22;7656;51.954;7.998;2024-02-23T15:01:22;8.80;99.90
15111;DHT22;7656;51.954;7.998;2024-02-23T15:05:44;9.20;99.90
15111;DHT22;7656;51.954;7.998;2024-02-23T15:10:05;9.10;99.90
15111;DHT22;7656;51.954;7.998;2024-02-23T15:14:28;9.10;99.90
15111;DHT22;7656;51.954;7.998;2024-02-23T15:18:50;9.30;99.90
15111;DHT22;7656;51.954;7.998;2024-02-23T15:23:11;9.50;99.90
15111;DHT22;7656;51.954;7.998;2024-02-23T15:27:32;9.70;99.90
15111;DHT22;7656;51.954;7.998;2024-02-23T15:31:53;9.80;99.90
15111;DHT22;7656;51.954;7.998;2024-02-23T15:36:14;9.70;99.90
15111;DHT22;7656;51.954;7.998;2024-02-23T15:40:36;9.20;99.90
15111;DHT22;7656;51.954;7.998;2024-02-23T15:44:57;9.20;99.90
15111;DHT22;7656;51.954;7.998;2024-02-23T15:49:18;9.50;99.90
15111;DHT22;7656;51.954;7.998;2024-02-23T15:53:40;9.80;99.90
15111;DHT22;7656;51.954;7.998;2024-02-23T15:58:01;9.80;99.90
15111;DHT22;7656;51.954;7.998;2024-02-23T16:02:24;9.70;99.90
15111;DHT22;7656;51.954;7.998;2024-02-23T16:06:45;9.80;99.90
15111;DHT22;7656;51.954;7.998;2024-02-23T16:11:08;9.40;99.90
15111;DHT22;7656;51.954;7.998;2024-02-23T16:15:32;9.10;99.90
15111;DHT22;7656;51.954;7.998;2024-02-23T16:19:53;8.40;99.90
15111;DHT22;7656;51.954;7.998;2024-02-23T16:24:15;8.00;99.90
15111;DHT22;7656;51.954;7.998;2024-02-23T16:28:36;7.70;99.90
15111;DHT22;7656;51.954;7.998;2024-02-23T16:32:57;7.80;99.90
15111;DHT22;7656;51.954;7.998;2024-02-23T16:37:18;8.00;99.90
15111;DHT22;7656;51.954;7.998;2024-02-23T16:41:40;8.10;99.90
15111;DHT22;7656;51.954;7.998;2024-02-23T16:46:01;8.20;99.90
15111;DHT22;7656;51.954;7.998;2024-02-23T16:50:22;7.80;99.90
15111;DHT22;7656;51.954;7.998;2024-02-23T16:54:43;7.60;99.90
15111;DHT22;7656;51.954;7.998;2024-02-23T16:59:04;7.50;99.90
15111;DHT22;7656;51.954;7.998;2024-02-23T17:03:25;7.50;99.90
15111;DHT22;7656;51.954;7.998;2024-02-23T17:07:47;7.40;99.90
15111;DHT22;7656;51.954;7.998;2024-02-23T17:12:09;7.50;99.90
15111;DHT22;7656;51.954;7.998;2024-02-23T17:16:30;7.30;99.90
15111;DHT22;7656;51.954;7.998;2024-02-23T17:20:51;7.00;99.90
15111;DHT22;7656;51.954;7.998;2024-02-23T17:25:12;6.90;99.90
15111;DHT22;7656;51.954;7.998;2024-02-23T17:29:34;6.80;99.90
15111;DHT22;7656;51.954;7.998;2024-02-23T17:33:55;6.80;99.90
15111;DHT22;7656;51.954;7.998;2024-02-23T17:38:16;6.90;99.90
15111;DHT22;7656;51.954;7.998;2024-02-23T17:42:37;6.80;99.90
15111;DHT22;7656;51.954;7.998;2024-02-23T17:46:59;6.80;99.90
15111;DHT22;7656;51.954;7.998;2024-02-23T17:51:20;6.80;99.90
15111;DHT22;7656;51.954;7.998;2024-02-23T17:55:41;7.00;99.90
15111;DHT22;7656;51.954;7.998;2024-02-23T18:00:03;7.30;99.90
15111;DHT22;7656;51.954;7.998;2024-02-23T18:04:26;7.40;99.90
15111;DHT22;7656;51.954;7.998;2024-02-23T18:08:47;7.30;99.90
15111;DHT22;7656;51.954;7.998;2024-02-23T18:13:08;7.20;99.90
15111;DHT22;7656;51.954;7.998;2024-02-23T18:17:29;7.20;99.90
15111;DHT22;7656;51.954;7.998;2024-02-23T18:21:50;7.00;99.90
15111;DHT22;7656;51.954;7.998;2024-02-23T18:26:14;6.80;99.90
15111;DHT22;7656;51.954;7.998;2024-02-23T18:30:35;6.60;99.90
15111;DHT22;7656;51.954;7.998;2024-02-23T18:34:56;6.60;99.90
15111;DHT22;7656;51.954;7.998;2024-02-23T18:39:17;6.60;99.90
15111;DHT22;7656;51.954;7.998;2024-02-23T18:43:39;6.60;99.90
15111;DHT22;7656;51.954;7.998;2024-02-23T18:48:00;6.70;99.90
15111;DHT22;7656;51.954;7.998;2024-02-23T18:52:21;6.80;99.90
15111;DHT22;7656;51.954;7.998;2024-02-23T18:56:42;6.80;99.90
15111;DHT22;7656;51.954;7.998;2024-02-23T19:01:03;6.80;99.90
15111;DHT22;7656;51.954;7.998;2024-02-23T19:05:27;6.80;99.90
15111;DHT22;7656;51.954;7.998;2024-02-23T19:09:48;6.70;99.90
15111;DHT22;7656;51.954;7.998;2024-02-23T19:14:09;6.80;99.90
15111;DHT22;7656;51.954;7.998;2024-02-23T19:18:30;7.00;99.90
15111;DHT22;7656;51.954;7.998;2024-02-23T19:22:53;6.90;99.90
15111;DHT22;7656;51.954;7.998;2024-02-23T19:27:19;6.90;99.90
15111;DHT22;7656;51.954;7.998;2024-02-23T19:31:42;7.00;99.90
15111;DHT22;7656;51.954;7.998;2024-02-23T19:36:03;7.00;99.90
15111;DHT22;7656;51.954;7.998;2024-02-23T19:40:25;6.80;99.90
15111;DHT22;7656;51.954;7.998;2024-02-23T19:44:46;6.70;99.90
15111;DHT22;7656;51.954;7.998;2024-02-23T19:49:08;6.70;99.90
15111;DHT22;7656;51.954;7.998;2024-02-23T19:53:29;6.60;99.90
15111;DHT22;7656;51.954;7.998;2024-02-23T19:57:50;6.60;99.90
15111;DHT22;7656;51.954;7.998;2024-02-23T20:02:11;6.70;99.90
15111;DHT22;7656;51.954;7.998;2024-02-23T20:06:35;6.70;99.90
15111;DHT22;7656;51.954;7.998;2024-02-23T20:10:56;6.70;99.90
15111;DHT22;7656;51.954;7.998;2024-02-23T20:15:20;6.60;99.90
15111;DHT22;7656;51.954;7.998;2024-02-23T20:19:41;6.60;99.90
15111;DHT22;7656;51.954;7.998;2024-02-23T20:24:03;6.50;99.90
15111;DHT22;7656;51.954;7.998;2024-02-23T20:28:24;6.60;99.90
15111;DHT22;7656;51.954;7.998;2024-02-23T20:32:45;6.50;99.90
15111;DHT22;7656;51.954;7.998;2024-02-23T20:37:06;6.60;99.90
15111;DHT22;7656;51.954;7.998;2024-02-23T20:41:27;6.60;99.90
15111;DHT22;7656;51.954;7.998;2024-02-23T20:45:48;6.60;99.90
15111;DHT22;7656;51.954;7.998;2024-02-23T20:50:11;6.60;99.90
15111;DHT22;7656;51.954;7.998;2024-02-23T20:54:33;6.60;99.90
15111;DHT22;7656;51.954;7.998;2024-02-23T20:58:54;6.50;99.90
15111;DHT22;7656;51.954;7.998;2024-02-23T21:03:15;6.40;99.90
15111;DHT22;7656;51.954;7.998;2024-02-23T21:07:37;6.40;99.90
15111;DHT22;7656;51.954;7.998;2024-02-23T21:11:58;6.30;99.90
15111;DHT22;7656;51.954;7.998;2024-02-23T21:16:19;6.30;99.90
15111;DHT22;7656;51.954;7.998;2024-02-23T21:20:44;6.20;99.90
15111;DHT22;7656;51.954;7.998;2024-02-23T21:25:06;6.10;99.90
15111;DHT22;7656;51.954;7.998;2024-02-23T21:29:28;6.10;99.90
15111;DHT22;7656;51.954;7.998;2024-02-23T21:33:49;6.10;99.90
15111;DHT22;7656;51.954;7.998;2024-02-23T21:38:14;6.10;99.90
15111;DHT22;7656;51.954;7.998;2024-02-23T21:42:35;6.10;99.90
15111;DHT22;7656;51.954;7.998;2024-02-23T21:46:56;6.20;99.90
15111;DHT22;7656;51.954;7.998;2024-02-23T21:51:17;6.10;99.90
15111;DHT22;7656;51.954;7.998;2024-02-23T21:55:38;6.20;99.90
15111;DHT22;7656;51.954;7.998;2024-02-23T21:59:59;6.20;99.90
15111;DHT22;7656;51.954;7.998;2024-02-23T22:04:20;6.20;99.90
15111;DHT22;7656;51.954;7.998;2024-02-23T22:08:42;6.10;99.90
15111;DHT22;7656;51.954;7.998;2024-02-23T22:13:03;6.10;99.90
15111;DHT22;7656;51.954;7.998;2024-02-23T22:17:25;6.10;99.90
15111;DHT22;7656;51.954;7.998;2024-02-23T22:21:47;5.90;99.90
15111;DHT22;7656;51.954;7.998;2024-02-23T22:26:08;5.90;99.90
15111;DHT22;7656;51.954;7.998;2024-02-23T22:30:29;5.90;99.90
15111;DHT22;7656;51.954;7.998;2024-02-23T22:34:50;5.90;99.90
15111;DHT22;7656;51.954;7.998;2024-02-23T22:39:12;5.90;99.90
15111;DHT22;7656;51.954;7.998;2024-02-23T22:43:34;5.80;99.90
15111;DHT22;7656;51.954;7.998;2024-02-23T22:47:55;6.00;99.90
15111;DHT22;7656;51.954;7.998;2024-02-23T22:52:17;6.00;99.90
15111;DHT22;7656;51.954;7.998;2024-02-23T22:56:38;6.00;99.90
15111;DHT22;7656;51.954;7.998;2024-02-23T23:00:59;5.90;99.90
15111;DHT22;7656;51.954;7.998;2024-02-23T23:05:20;5.90;99.90
15111;DHT22;7656;51.954;7.998;2024-02-23T23:09:44;5.80;99.90
15111;DHT22;7656;51.954;7.998;2024-02-23T23:14:06;5.70;99.90
15111;DHT22;7656;51.954;7.998;2024-02-23T23:18:28;5.80;99.90
15111;DHT22;7656;51.954;7.998;2024-02-23T23:22:49;5.70;99.90
15111;DHT22;7656;51.954;7.998;2024-02-23T23:27:10;5.60;99.90
15111;DHT22;7656;51.954;7.998;2024-02-23T23:31:31;5.40;99.90
15111;DHT22;7656;51.954;7.998;2024-02-23T23:35:52;5.40;99.90
15111;DHT22;7656;51.954;7.998;2024-02-23T23:40:13;5.30;99.90
15111;DHT22;7656;51.954;7.998;2024-02-23T23:44:34;5.30;99.90
15111;DHT22;7656;51.954;7.998;2024-02-23T23:48:55;5.30;99.90
15111;DHT22;7656;51.954;7.998;2024-02-23T23:53:16;5.50;99.90
15111;DHT22;7656;51.954;7.998;2024-02-23T23:57:37;5.40;99.90
